createdAt,value
2019-03-12T00:00:28.228Z,95.40
2019-03-12T00:02:56.650Z,95.50
2019-03-12T00:05:25.158Z,95.50
2019-03-12T00:07:53.790Z,95.50
2019-03-12T00:10:22.183Z,95.60
2019-03-12T00:12:50.572Z,95.60
2019-03-12T00:15:18.979Z,95.60
2019-03-12T00:17:47.380Z,95.70
2019-03-12T00:20:15.819Z,95.80
2019-03-12T00:22:44.213Z,95.80
2019-03-12T00:25:12.664Z,95.90
2019-03-12T00:27:41.054Z,96.00
2019-03-12T00:30:10.386Z,96.00
2019-03-12T00:32:38.800Z,96.00
2019-03-12T00:35:08.123Z,96.00
2019-03-12T00:37:36.546Z,96.10
2019-03-12T00:40:06.879Z,96.10
2019-03-12T00:42:35.266Z,96.10
2019-03-12T00:45:05.131Z,96.40
2019-03-12T00:47:33.602Z,96.00
2019-03-12T00:50:01.991Z,96.40
2019-03-12T00:52:30.446Z,96.00
2019-03-12T00:54:58.852Z,96.10
2019-03-12T00:57:27.255Z,96.20
2019-03-12T00:59:56.562Z,96.20
2019-03-12T01:02:25.175Z,96.30
2019-03-12T01:04:53.611Z,96.30
2019-03-12T01:07:22.001Z,96.40
2019-03-12T01:09:50.391Z,96.60
2019-03-12T01:12:18.876Z,96.70
2019-03-12T01:14:47.302Z,96.80
2019-03-12T01:17:15.704Z,96.90
2019-03-12T01:19:44.117Z,97.40
2019-03-12T01:22:12.523Z,97.10
2019-03-12T01:24:40.906Z,97.30
2019-03-12T01:27:09.310Z,97.30
2019-03-12T01:29:37.702Z,97.40
2019-03-12T01:32:06.109Z,97.40
2019-03-12T01:34:34.507Z,97.40
2019-03-12T01:37:02.982Z,97.30
2019-03-12T01:39:31.393Z,97.20
2019-03-12T01:41:59.778Z,97.20
2019-03-12T01:44:28.189Z,97.20
2019-03-12T01:46:56.587Z,97.10
2019-03-12T01:49:24.982Z,96.90
2019-03-12T01:51:53.394Z,96.80
2019-03-12T01:54:21.851Z,96.70
2019-03-12T01:56:50.238Z,96.70
2019-03-12T01:59:18.667Z,96.60
2019-03-12T02:01:47.054Z,96.50
2019-03-12T02:04:15.448Z,96.40
2019-03-12T02:06:43.846Z,96.30
2019-03-12T02:09:12.409Z,96.30
2019-03-12T02:11:41.015Z,96.20
2019-03-12T02:14:23.415Z,96.10
2019-03-12T02:16:51.840Z,96.00
2019-03-12T02:19:20.203Z,95.90
2019-03-12T02:21:48.611Z,95.80
2019-03-12T02:24:17.001Z,95.80
2019-03-12T02:26:45.423Z,95.80
2019-03-12T02:29:13.878Z,95.60
2019-03-12T02:31:42.291Z,95.60
2019-03-12T02:34:10.684Z,95.60
2019-03-12T02:36:39.093Z,95.60
2019-03-12T02:39:08.636Z,95.60
2019-03-12T02:41:37.060Z,95.70
2019-03-12T02:44:05.586Z,95.90
2019-03-12T02:46:33.994Z,96.10
2019-03-12T02:49:02.402Z,96.40
2019-03-12T02:51:31.117Z,96.60
2019-03-12T02:53:59.550Z,96.70
2019-03-12T02:56:27.954Z,97.10
2019-03-12T02:58:56.637Z,97.30
2019-03-12T03:01:25.018Z,97.50
2019-03-12T03:03:53.409Z,97.60
2019-03-12T03:06:23.448Z,97.90
2019-03-12T03:08:51.855Z,97.90
2019-03-12T03:11:20.243Z,97.90
2019-03-12T03:13:48.640Z,97.70
2019-03-12T03:16:36.384Z,97.60
2019-03-12T03:19:04.802Z,97.40
2019-03-12T03:21:33.211Z,97.20
2019-03-12T03:24:01.688Z,97.00
2019-03-12T03:26:30.082Z,96.90
2019-03-12T03:28:58.541Z,96.90
2019-03-12T03:31:26.927Z,96.90
2019-03-12T03:33:55.320Z,97.00
2019-03-12T03:36:23.782Z,97.50
2019-03-12T03:38:52.170Z,97.40
2019-03-12T03:41:20.555Z,97.50
2019-03-12T03:43:48.980Z,97.70
2019-03-12T03:46:17.380Z,97.90
2019-03-12T03:48:45.778Z,98.20
2019-03-12T03:51:14.193Z,98.30
2019-03-12T03:53:42.580Z,98.40
2019-03-12T03:56:10.975Z,98.60
2019-03-12T03:58:39.646Z,98.70
2019-03-12T04:01:08.053Z,98.80
2019-03-12T04:03:36.546Z,98.90
2019-03-12T04:06:05.119Z,99.10
2019-03-12T04:08:33.530Z,99.20
2019-03-12T04:11:01.922Z,99.30
2019-03-12T04:13:30.306Z,99.50
2019-03-12T04:15:59.038Z,99.60
2019-03-12T04:18:27.531Z,99.80
2019-03-12T04:20:55.931Z,99.90
2019-03-12T04:23:24.338Z,99.90
2019-03-12T04:25:52.727Z,99.90
2019-03-12T04:28:21.115Z,99.90
2019-03-12T04:30:49.527Z,99.90
2019-03-12T04:33:40.723Z,99.90
2019-03-12T04:36:09.131Z,99.90
2019-03-12T04:38:37.610Z,99.90
2019-03-12T04:41:06.013Z,99.90
2019-03-12T04:43:34.410Z,99.90
2019-03-12T04:46:02.822Z,99.90
2019-03-12T04:48:31.235Z,99.90
2019-03-12T04:50:59.650Z,99.90
2019-03-12T04:53:28.043Z,99.90
2019-03-12T04:55:56.450Z,99.90
2019-03-12T04:58:24.847Z,99.90
2019-03-12T05:00:53.322Z,99.90
2019-03-12T05:03:21.718Z,99.90
2019-03-12T05:05:50.119Z,99.90
2019-03-12T05:08:18.547Z,99.90
2019-03-12T05:10:46.946Z,99.90
2019-03-12T05:13:15.344Z,99.90
2019-03-12T05:15:43.758Z,99.90
2019-03-12T05:18:12.183Z,99.90
2019-03-12T05:20:40.582Z,99.90
2019-03-12T05:23:09.221Z,99.90
2019-03-12T05:25:37.714Z,99.90
2019-03-12T05:28:06.134Z,99.90
2019-03-12T05:30:34.563Z,99.90
2019-03-12T05:33:02.954Z,99.90
2019-03-12T05:35:31.362Z,99.90
2019-03-12T05:37:59.754Z,99.90
2019-03-12T05:40:28.146Z,99.90
2019-03-12T05:42:56.778Z,99.90
2019-03-12T05:45:25.174Z,99.90
2019-03-12T05:47:53.635Z,99.90
2019-03-12T05:50:22.214Z,99.90
2019-03-12T05:52:50.686Z,99.90
2019-03-12T05:55:19.186Z,99.90
2019-03-12T05:57:47.579Z,99.90
2019-03-12T06:00:21.666Z,99.90
2019-03-12T06:02:50.119Z,99.90
2019-03-12T06:05:18.506Z,99.90
2019-03-12T06:07:46.978Z,99.90
2019-03-12T06:10:16.308Z,99.90
2019-03-12T06:12:44.813Z,99.90
2019-03-12T06:15:15.114Z,99.90
2019-03-12T06:17:43.502Z,99.90
2019-03-12T06:20:16.018Z,99.90
2019-03-12T06:22:44.477Z,99.90
2019-03-12T06:25:13.847Z,99.90
2019-03-12T06:27:42.331Z,99.90
2019-03-12T06:30:19.218Z,99.90
2019-03-12T06:33:05.606Z,99.90
2019-03-12T06:35:38.597Z,99.90
2019-03-12T06:38:14.373Z,99.90
2019-03-12T06:40:44.474Z,99.90
2019-03-12T06:43:20.404Z,99.90
2019-03-12T06:46:06.889Z,99.90
2019-03-12T06:51:31.273Z,99.90
2019-03-12T06:54:17.927Z,99.90
2019-03-12T06:56:50.974Z,99.90
2019-03-12T06:59:37.774Z,99.90
2019-03-12T07:02:08.378Z,99.90
2019-03-12T07:04:44.163Z,99.90
2019-03-12T07:07:16.999Z,99.90
2019-03-12T07:09:45.980Z,99.90
2019-03-12T07:12:16.015Z,99.90
2019-03-12T07:14:46.068Z,99.90
2019-03-12T07:17:22.171Z,99.90
2019-03-12T07:20:08.467Z,99.90
2019-03-12T07:22:44.511Z,99.90
2019-03-12T07:25:14.538Z,99.60
2019-03-12T07:27:44.589Z,99.40
2019-03-12T07:30:31.121Z,99.30
2019-03-12T07:33:13.082Z,99.10
2019-03-12T07:35:43.113Z,99.10
2019-03-12T07:38:13.142Z,98.80
2019-03-12T07:40:46.153Z,98.70
2019-03-12T07:43:32.423Z,98.60
2019-03-12T07:46:02.480Z,98.50
2019-03-12T07:48:38.611Z,98.30
2019-03-12T07:51:25.190Z,98.00
2019-03-12T07:53:59.813Z,97.60
2019-03-12T07:56:43.539Z,98.00
2019-03-12T07:59:25.866Z,97.70
2019-03-12T08:02:04.990Z,97.60
2019-03-12T08:04:35.030Z,97.70
2019-03-12T08:07:08.066Z,97.10
2019-03-12T08:09:38.131Z,96.90
2019-03-12T08:12:17.270Z,96.70
2019-03-12T08:14:47.310Z,96.50
2019-03-12T08:17:17.342Z,96.10
2019-03-12T08:19:47.394Z,95.50
2019-03-12T08:22:29.864Z,95.30
2019-03-12T08:25:02.874Z,94.90
2019-03-12T08:27:49.499Z,94.60
2019-03-12T08:30:28.526Z,94.50
2019-03-12T08:33:13.964Z,94.10
2019-03-12T08:35:56.114Z,93.80
2019-03-12T08:38:42.583Z,93.40
2019-03-12T08:41:12.619Z,92.90
2019-03-12T08:43:48.734Z,92.20
2019-03-12T08:46:22.344Z,92.00
2019-03-12T08:48:58.999Z,91.50
2019-03-12T08:51:37.833Z,91.00
2019-03-12T08:54:13.640Z,90.70
2019-03-12T08:56:46.419Z,90.80
2019-03-12T08:59:16.451Z,90.40
2019-03-12T09:01:47.666Z,90.10
2019-03-12T09:04:35.695Z,89.90
2019-03-12T09:07:05.730Z,89.30
2019-03-12T09:09:41.800Z,88.00
2019-03-12T09:12:11.849Z,87.70
2019-03-12T09:14:41.890Z,87.90
2019-03-12T09:17:12.030Z,87.40
2019-03-12T09:19:48.351Z,85.70
2019-03-12T09:22:18.395Z,85.10
2019-03-12T09:24:57.235Z,85.30
2019-03-12T09:27:36.362Z,84.80
2019-03-12T09:30:15.259Z,84.90
2019-03-12T09:32:51.230Z,85.20
2019-03-12T09:35:21.314Z,85.00
2019-03-12T09:37:57.407Z,85.40
2019-03-12T09:40:27.695Z,85.70
2019-03-12T09:43:04.006Z,84.40
2019-03-12T09:45:52.383Z,84.80
2019-03-12T09:48:28.527Z,85.00
2019-03-12T09:51:01.479Z,85.10
2019-03-12T09:53:37.519Z,85.20
2019-03-12T09:56:10.206Z,85.40
2019-03-12T09:58:43.248Z,85.10
2019-03-12T10:01:16.283Z,84.80
2019-03-12T10:03:52.115Z,84.30
2019-03-12T10:06:25.214Z,84.20
2019-03-12T10:09:11.691Z,84.30
2019-03-12T10:11:54.055Z,84.50
2019-03-12T10:14:33.099Z,84.00
2019-03-12T10:17:05.666Z,83.80
2019-03-12T10:19:54.214Z,84.20
2019-03-12T10:22:26.949Z,84.50
2019-03-12T10:24:59.907Z,83.30
2019-03-12T10:27:45.306Z,82.60
2019-03-12T10:30:27.661Z,82.00
2019-03-12T10:33:13.614Z,81.40
2019-03-12T10:35:59.011Z,81.30
2019-03-12T10:39:17.590Z,81.60
2019-03-12T10:41:56.539Z,81.40
2019-03-12T10:44:29.410Z,82.20
2019-03-12T10:47:05.559Z,81.10
2019-03-12T10:49:37.619Z,81.30
2019-03-12T10:52:04.082Z,80.50
2019-03-12T10:54:32.481Z,79.30
2019-03-12T10:57:00.970Z,79.80
2019-03-12T10:59:29.651Z,79.00
2019-03-12T11:01:58.042Z,78.50
2019-03-12T11:04:26.731Z,79.40
2019-03-12T11:06:55.144Z,79.30
2019-03-12T11:09:23.653Z,78.70
2019-03-12T11:11:52.026Z,79.80
2019-03-12T11:14:20.415Z,79.80
2019-03-12T11:16:48.819Z,79.50
2019-03-12T11:19:17.615Z,78.90
2019-03-12T11:21:46.343Z,78.70
2019-03-12T11:24:14.741Z,78.60
2019-03-12T11:26:43.195Z,78.40
2019-03-12T11:29:11.604Z,77.40
2019-03-12T11:31:39.988Z,76.60
2019-03-12T11:34:08.382Z,76.40
2019-03-12T11:36:36.800Z,75.50
2019-03-12T11:39:05.961Z,74.30
2019-03-12T11:41:34.560Z,71.80
2019-03-12T11:44:03.085Z,71.20
2019-03-12T11:46:41.841Z,70.90
2019-03-12T11:49:01.938Z,71.70
2019-03-12T11:51:30.446Z,69.90
2019-03-12T11:53:58.843Z,68.80
2019-03-12T11:56:27.450Z,67.70
2019-03-12T11:58:55.900Z,67.30
2019-03-12T12:01:24.333Z,66.50
2019-03-12T12:03:52.727Z,65.00
2019-03-12T12:06:21.248Z,63.90
2019-03-12T12:08:49.753Z,62.50
2019-03-12T12:11:18.190Z,59.40
2019-03-12T12:13:46.603Z,56.80
2019-03-12T12:16:15.073Z,56.00
2019-03-12T12:18:43.716Z,52.80
2019-03-12T12:21:12.125Z,50.00
2019-03-12T12:23:40.511Z,49.60
2019-03-12T12:26:08.922Z,48.80
2019-03-12T12:28:37.314Z,47.90
2019-03-12T12:31:05.753Z,48.40
2019-03-12T12:33:34.258Z,48.20
2019-03-12T12:36:02.654Z,47.70
2019-03-12T12:38:31.074Z,48.30
2019-03-12T12:40:59.491Z,47.30
2019-03-12T12:43:27.891Z,46.20
2019-03-12T12:45:56.315Z,45.00
2019-03-12T12:48:24.788Z,44.40
2019-03-12T12:51:03.121Z,43.80
2019-03-12T12:53:23.399Z,43.80
2019-03-12T12:55:51.801Z,44.90
2019-03-12T12:58:20.190Z,45.10
2019-03-12T13:00:48.907Z,43.70
2019-03-12T13:03:18.026Z,42.80
2019-03-12T13:05:46.422Z,42.50
2019-03-12T13:08:15.007Z,43.30
2019-03-12T13:10:43.397Z,42.20
2019-03-12T13:13:11.790Z,42.50
2019-03-12T13:15:40.213Z,43.30
2019-03-12T13:18:08.602Z,42.60
2019-03-12T13:20:37.072Z,42.70
2019-03-12T13:23:05.486Z,43.80
2019-03-12T13:25:33.942Z,43.60
2019-03-12T13:28:02.425Z,44.00
2019-03-12T13:30:30.846Z,44.00
2019-03-12T13:32:59.251Z,44.10
2019-03-12T13:35:27.874Z,44.10
2019-03-12T13:37:56.264Z,44.20
2019-03-12T13:40:25.949Z,44.40
2019-03-12T13:42:54.559Z,44.50
2019-03-12T13:45:28.676Z,45.30
2019-03-12T13:47:57.416Z,45.10
2019-03-12T13:50:25.942Z,44.70
2019-03-12T13:52:54.487Z,44.60
2019-03-12T13:55:23.490Z,43.90
2019-03-12T13:57:52.079Z,44.30
2019-03-12T14:00:24.310Z,43.60
2019-03-12T14:02:53.156Z,43.50
2019-03-12T14:05:21.709Z,43.10
2019-03-12T14:07:50.164Z,42.60
2019-03-12T14:10:23.995Z,42.60
2019-03-12T14:12:54.501Z,42.80
2019-03-12T14:15:46.589Z,43.60
2019-03-12T14:18:15.110Z,43.40
2019-03-12T14:20:45.137Z,43.30
2019-03-12T14:23:22.467Z,42.50
2019-03-12T14:25:51.123Z,42.20
2019-03-12T14:28:19.586Z,42.20
2019-03-12T14:30:48.178Z,42.70
2019-03-12T14:33:16.647Z,43.20
2019-03-12T14:35:51.290Z,43.30
2019-03-12T14:38:15.705Z,43.10
2019-03-12T14:40:44.126Z,42.90
2019-03-12T14:45:32.927Z,43.50
2019-03-12T14:48:02.110Z,44.20
2019-03-12T14:50:32.000Z,44.60
2019-03-12T14:53:07.645Z,44.40
2019-03-12T14:55:37.216Z,43.90
2019-03-12T14:58:05.607Z,44.30
2019-03-12T15:00:34.092Z,44.40
2019-03-12T15:03:02.502Z,43.80
2019-03-12T15:05:30.890Z,43.60
2019-03-12T15:07:59.638Z,44.00
2019-03-12T15:10:28.031Z,44.30
2019-03-12T15:12:56.455Z,44.20
2019-03-12T15:15:24.855Z,44.40
2019-03-12T15:17:53.416Z,44.50
2019-03-12T15:20:22.338Z,44.80
2019-03-12T15:22:51.004Z,44.70
2019-03-12T15:25:19.746Z,44.10
2019-03-12T15:27:48.114Z,44.30
2019-03-12T15:30:19.424Z,44.00
2019-03-12T15:32:47.828Z,43.80
2019-03-12T15:35:16.222Z,44.00
2019-03-12T15:37:44.627Z,43.40
2019-03-12T15:40:13.970Z,43.90
2019-03-12T15:42:42.385Z,43.70
2019-03-12T15:45:13.056Z,43.80
2019-03-12T15:47:41.450Z,43.90
2019-03-12T15:50:12.657Z,44.50
2019-03-12T15:52:41.144Z,44.60
2019-03-12T15:55:11.324Z,44.80
2019-03-12T15:57:39.986Z,45.00
2019-03-12T16:00:11.487Z,45.50
2019-03-12T16:02:39.940Z,46.20
2019-03-12T16:05:09.101Z,46.60
2019-03-12T16:07:37.604Z,46.40
2019-03-12T16:10:14.554Z,46.80
2019-03-12T16:12:42.952Z,46.60
2019-03-12T16:15:13.099Z,46.50
2019-03-12T16:17:41.580Z,47.00
2019-03-12T16:20:15.391Z,47.10
2019-03-12T16:22:43.798Z,47.60
2019-03-12T16:25:12.547Z,47.90
2019-03-12T16:27:40.941Z,48.50
2019-03-12T16:30:12.403Z,48.80
2019-03-12T16:32:40.839Z,49.20
2019-03-12T16:35:09.979Z,49.70
2019-03-12T16:37:38.390Z,50.00
2019-03-12T16:40:09.884Z,50.40
2019-03-12T16:42:38.302Z,50.70
2019-03-12T16:45:09.393Z,50.80
2019-03-12T16:47:37.840Z,51.10
2019-03-12T16:50:17.386Z,51.50
2019-03-12T16:52:45.807Z,51.90
2019-03-12T16:55:16.003Z,52.00
2019-03-12T16:57:44.391Z,52.30
2019-03-12T17:00:20.470Z,52.60
2019-03-12T17:02:48.869Z,52.70
2019-03-12T17:05:17.290Z,53.20
2019-03-12T17:07:45.701Z,53.50
2019-03-12T17:10:16.383Z,53.80
2019-03-12T17:12:44.923Z,54.00
2019-03-12T17:15:21.966Z,54.80
2019-03-12T17:17:50.385Z,54.70
2019-03-12T17:20:18.857Z,55.80
2019-03-12T17:22:47.266Z,55.30
2019-03-12T17:25:15.660Z,55.70
2019-03-12T17:27:44.097Z,56.10
2019-03-12T17:30:22.758Z,56.30
2019-03-12T17:32:51.411Z,56.70
2019-03-12T17:35:31.299Z,56.80
2019-03-12T17:37:59.915Z,57.10
2019-03-12T17:40:28.435Z,57.30
2019-03-12T17:42:56.795Z,57.30
2019-03-12T17:45:25.207Z,57.20
2019-03-12T17:47:54.006Z,57.30
2019-03-12T17:50:22.462Z,57.20
2019-03-12T17:52:51.111Z,57.40
2019-03-12T17:55:19.510Z,57.30
2019-03-12T17:57:50.496Z,57.20
2019-03-12T18:00:22.814Z,57.30
2019-03-12T18:02:51.627Z,57.20
2019-03-12T18:05:20.074Z,57.40
2019-03-12T18:07:48.566Z,57.30
2019-03-12T18:10:18.124Z,57.90
2019-03-12T18:12:46.618Z,57.50
2019-03-12T18:15:19.251Z,57.50
2019-03-12T18:17:46.839Z,57.50
2019-03-12T18:20:16.598Z,57.00
2019-03-12T18:22:45.228Z,56.90
2019-03-12T18:25:28.710Z,56.90
2019-03-12T18:27:57.184Z,57.50
2019-03-12T18:32:54.610Z,56.90
2019-03-12T18:35:23.265Z,57.00
2019-03-12T18:37:51.639Z,57.00
2019-03-12T18:40:24.407Z,56.90
2019-03-12T18:42:52.887Z,57.00
2019-03-12T18:45:29.708Z,56.90
2019-03-12T18:47:58.136Z,56.70
2019-03-12T18:50:26.531Z,56.70
2019-03-12T18:52:55.434Z,56.40
2019-03-12T18:55:38.210Z,56.40
2019-03-12T18:58:10.051Z,56.50
2019-03-12T19:00:40.577Z,56.50
2019-03-12T19:03:09.225Z,56.40
2019-03-12T19:05:37.618Z,56.30
2019-03-12T19:08:06.156Z,56.30
2019-03-12T19:10:34.562Z,56.10
2019-03-12T19:13:03.029Z,56.10
2019-03-12T19:15:31.575Z,56.00
2019-03-12T19:18:00.086Z,55.60
2019-03-12T19:20:28.543Z,55.40
2019-03-12T19:22:56.931Z,55.30
2019-03-12T19:25:38.513Z,55.50
2019-03-12T19:28:07.434Z,55.40
2019-03-12T19:30:35.921Z,55.40
2019-03-12T19:33:07.782Z,55.50
2019-03-12T19:35:36.345Z,55.50
2019-03-12T19:38:05.109Z,55.40
2019-03-12T19:40:39.001Z,55.40
2019-03-12T19:43:07.465Z,55.50
2019-03-12T19:45:35.871Z,55.50
2019-03-12T19:48:04.796Z,55.50
2019-03-12T19:50:33.207Z,55.30
2019-03-12T19:53:01.625Z,55.20
2019-03-12T19:55:41.760Z,55.20
2019-03-12T19:58:10.334Z,55.20
2019-03-12T20:00:39.638Z,55.10
2019-03-12T20:03:12.076Z,54.90
2019-03-12T20:05:38.282Z,54.70
2019-03-12T20:08:06.780Z,54.90
2019-03-12T20:10:46.938Z,55.00
2019-03-12T20:13:50.455Z,55.10
2019-03-12T20:16:21.999Z,55.10
2019-03-12T20:19:12.836Z,55.10
2019-03-12T20:22:17.808Z,55.10
2019-03-12T20:25:23.371Z,55.30
2019-03-12T20:28:23.990Z,55.50
2019-03-12T20:31:27.423Z,55.70
2019-03-12T20:34:04.744Z,55.80
2019-03-12T20:36:51.492Z,56.20
2019-03-12T20:39:35.276Z,56.40
2019-03-12T20:42:29.388Z,56.70
2019-03-12T20:45:06.437Z,56.80
2019-03-12T20:47:46.870Z,57.00
2019-03-12T20:50:48.501Z,57.30
2019-03-12T20:53:19.987Z,57.40
2019-03-12T20:56:19.916Z,57.60
2019-03-12T20:59:18.843Z,57.60
2019-03-12T21:01:59.344Z,57.80
2019-03-12T21:05:03.990Z,58.00
2019-03-12T21:07:52.260Z,58.20
2019-03-12T21:10:29.589Z,58.20
2019-03-12T21:13:09.835Z,58.00
2019-03-12T21:15:55.783Z,58.00
2019-03-12T21:18:50.266Z,58.00
2019-03-12T21:21:30.866Z,57.90
2019-03-12T21:24:14.351Z,57.50
2019-03-12T21:27:03.839Z,57.30
2019-03-12T21:29:44.562Z,57.30
2019-03-12T21:32:14.279Z,57.20
2019-03-12T21:34:42.742Z,57.30
2019-03-12T21:37:11.402Z,57.20
2019-03-12T21:39:39.796Z,57.90
2019-03-12T21:42:08.531Z,57.30
2019-03-12T21:44:37.955Z,58.10
2019-03-12T21:47:09.858Z,57.60
2019-03-12T21:49:39.170Z,57.70
2019-03-12T21:52:08.154Z,57.60
2019-03-12T21:54:37.037Z,57.70
2019-03-12T21:57:05.672Z,57.80
2019-03-12T21:59:34.624Z,58.00
2019-03-12T22:02:03.406Z,58.10
2019-03-12T22:04:32.079Z,58.30
2019-03-12T22:07:00.853Z,58.30
2019-03-12T22:09:29.878Z,58.40
2019-03-12T22:11:59.794Z,58.50
2019-03-12T22:14:30.446Z,58.70
2019-03-12T22:17:01.358Z,58.60
2019-03-12T22:19:31.394Z,58.60
2019-03-12T22:22:01.637Z,58.70
2019-03-12T22:24:31.016Z,59.10
2019-03-12T22:26:59.903Z,58.40
2019-03-12T22:29:29.098Z,58.20
2019-03-12T22:31:58.280Z,58.20
2019-03-12T22:34:30.003Z,58.20
2019-03-12T22:36:58.040Z,57.90
2019-03-12T22:39:27.865Z,57.90
2019-03-12T22:41:56.730Z,57.60
2019-03-12T22:44:25.556Z,57.50
2019-03-12T22:46:53.967Z,57.40
2019-03-12T22:49:22.372Z,57.10
2019-03-12T22:51:50.781Z,57.00
2019-03-12T22:54:19.258Z,56.90
2019-03-12T22:56:47.922Z,56.70
2019-03-12T22:59:16.363Z,56.70
2019-03-12T23:01:44.895Z,57.10
2019-03-12T23:04:13.307Z,57.60
2019-03-12T23:06:41.734Z,58.10
2019-03-12T23:09:10.123Z,58.40
2019-03-12T23:11:38.574Z,58.70
2019-03-12T23:14:07.014Z,58.70
2019-03-12T23:16:35.462Z,58.70
2019-03-12T23:19:04.255Z,58.60
2019-03-12T23:21:32.640Z,58.60
2019-03-12T23:24:01.122Z,58.50
2019-03-12T23:26:29.604Z,58.60
2019-03-12T23:28:57.990Z,59.00
2019-03-12T23:31:26.422Z,59.30
2019-03-12T23:33:54.790Z,59.60
2019-03-12T23:36:23.626Z,60.00
2019-03-12T23:38:52.003Z,65.30
2019-03-12T23:41:20.498Z,73.60
2019-03-12T23:43:48.953Z,75.90
2019-03-12T23:46:17.363Z,77.00
2019-03-12T23:48:45.754Z,76.70
2019-03-12T23:51:14.391Z,78.20
2019-03-12T23:53:42.891Z,78.30
2019-03-12T23:56:11.283Z,79.00
2019-03-12T23:58:39.671Z,79.30
